CheckWX is a tool to help pilots better visualize weather data.  It is not intended as a substitute for an official pre-flight weather briefing.

20:35:24 UTC

KSJT TAF
San Angelo Regional / Mathis Field Airport
San Angelo, Texas, USA
KSJT 221722Z 2218/2318 17014G23KT P6SM BKN100 FM230100 17012KT P6SM OVC050 FM230600 19010KT P6SM VCSH SCT025 OVC050 FM230900 20010KT P6SM VCSH OVC015 FM231600 21015G22KT P6SM SCT040

Mar-22@
18:00 UTC

Mar-22 @ 18:00 UTC

Mar-23@
01:00 UTC

Mar-23 @ 01:00 UTC

KSJT 221722Z 2218/2318 17014G23KT P6SM BKN100
Wind
  • 170° at 14 KTS
  • {Gusting to 23 KTS
Cloud Levels
  • Broken at 10,000' AGL

Mar-23@
01:00 UTC

Mar-23 @ 01:00 UTC

Mar-23@
06:00 UTC

Mar-23 @ 06:00 UTC

FM230100 17012KT P6SM OVC050

From

From Standard forecast or significant change

Wind
  • 170° at 12 KTS
Cloud Levels
  • Overcast at 5,000' AGL

Mar-23@
06:00 UTC

Mar-23 @ 06:00 UTC

Mar-23@
09:00 UTC

Mar-23 @ 09:00 UTC

FM230600 19010KT P6SM VCSH SCT025 OVC050

From

From Standard forecast or significant change

Wind
  • 190° at 10 KTS
Cloud Levels
  • Scattered at 2,500' AGL
  • Overcast at 5,000' AGL

Mar-23@
09:00 UTC

Mar-23 @ 09:00 UTC

Mar-23@
16:00 UTC

Mar-23 @ 16:00 UTC

FM230900 20010KT P6SM VCSH OVC015

From

From Standard forecast or significant change

Wind
  • 200° at 10 KTS
Cloud Levels
  • Overcast at 1,500' AGL

Mar-23@
16:00 UTC

Mar-23 @ 16:00 UTC

Mar-23@
18:00 UTC

Mar-23 @ 18:00 UTC

FM231600 21015G22KT P6SM SCT040

From

From Standard forecast or significant change

Wind
  • 210° at 15 KTS
  • {Gusting to 22 KTS
Cloud Levels
  • Scattered at 4,000' AGL